sensor_id;sensor_type;location;lat;lon;timestamp;P1;durP1;ratioP1;P2;durP2;ratioP2
8536;SDS011;4306;50.210;10.628;2022-12-07T00:00:18;7.93;;;4.60;;
8536;SDS011;4306;50.210;10.628;2022-12-07T00:02:45;9.20;;;5.50;;
8536;SDS011;4306;50.210;10.628;2022-12-07T00:05:12;7.03;;;4.67;;
8536;SDS011;4306;50.210;10.628;2022-12-07T00:07:40;7.47;;;4.50;;
8536;SDS011;4306;50.210;10.628;2022-12-07T00:10:07;8.40;;;5.00;;
8536;SDS011;4306;50.210;10.628;2022-12-07T00:12:34;7.40;;;4.67;;
8536;SDS011;4306;50.210;10.628;2022-12-07T00:15:01;8.27;;;5.67;;
8536;SDS011;4306;50.210;10.628;2022-12-07T00:17:28;7.33;;;5.23;;
8536;SDS011;4306;50.210;10.628;2022-12-07T00:19:55;9.57;;;6.60;;
8536;SDS011;4306;50.210;10.628;2022-12-07T00:22:22;15.37;;;8.43;;
8536;SDS011;4306;50.210;10.628;2022-12-07T00:24:50;11.17;;;6.30;;
8536;SDS011;4306;50.210;10.628;2022-12-07T00:27:17;9.40;;;5.53;;
8536;SDS011;4306;50.210;10.628;2022-12-07T00:29:44;9.32;;;5.90;;
8536;SDS011;4306;50.210;10.628;2022-12-07T00:32:11;7.77;;;4.90;;
8536;SDS011;4306;50.210;10.628;2022-12-07T00:34:37;8.83;;;5.57;;
8536;SDS011;4306;50.210;10.628;2022-12-07T00:37:04;10.27;;;6.27;;
8536;SDS011;4306;50.210;10.628;2022-12-07T00:39:31;9.00;;;6.00;;
8536;SDS011;4306;50.210;10.628;2022-12-07T00:41:59;7.83;;;5.27;;
8536;SDS011;4306;50.210;10.628;2022-12-07T00:44:26;9.73;;;5.73;;
8536;SDS011;4306;50.210;10.628;2022-12-07T00:46:53;10.00;;;6.10;;
8536;SDS011;4306;50.210;10.628;2022-12-07T00:49:20;8.10;;;5.70;;
8536;SDS011;4306;50.210;10.628;2022-12-07T00:51:47;8.57;;;5.40;;
8536;SDS011;4306;50.210;10.628;2022-12-07T00:54:14;9.30;;;5.63;;
8536;SDS011;4306;50.210;10.628;2022-12-07T00:56:41;8.80;;;5.57;;
8536;SDS011;4306;50.210;10.628;2022-12-07T00:59:11;9.00;;;5.73;;
8536;SDS011;4306;50.210;10.628;2022-12-07T01:01:40;9.13;;;5.73;;
8536;SDS011;4306;50.210;10.628;2022-12-07T01:04:07;8.77;;;5.43;;
8536;SDS011;4306;50.210;10.628;2022-12-07T01:06:34;9.20;;;6.47;;
8536;SDS011;4306;50.210;10.628;2022-12-07T01:09:01;7.47;;;5.10;;
8536;SDS011;4306;50.210;10.628;2022-12-07T01:11:29;9.53;;;6.10;;
8536;SDS011;4306;50.210;10.628;2022-12-07T01:13:57;11.03;;;6.00;;
8536;SDS011;4306;50.210;10.628;2022-12-07T01:16:28;10.20;;;6.25;;
8536;SDS011;4306;50.210;10.628;2022-12-07T01:18:56;9.97;;;6.13;;
8536;SDS011;4306;50.210;10.628;2022-12-07T01:21:25;10.07;;;6.23;;
8536;SDS011;4306;50.210;10.628;2022-12-07T01:23:54;11.30;;;6.80;;
8536;SDS011;4306;50.210;10.628;2022-12-07T01:26:23;10.60;;;6.40;;
8536;SDS011;4306;50.210;10.628;2022-12-07T01:28:51;8.53;;;5.70;;
8536;SDS011;4306;50.210;10.628;2022-12-07T01:31:20;11.13;;;6.43;;
8536;SDS011;4306;50.210;10.628;2022-12-07T01:33:51;10.10;;;6.53;;
8536;SDS011;4306;50.210;10.628;2022-12-07T01:36:19;10.00;;;6.40;;
8536;SDS011;4306;50.210;10.628;2022-12-07T01:38:48;10.50;;;6.17;;
8536;SDS011;4306;50.210;10.628;2022-12-07T01:41:23;11.57;;;6.43;;
8536;SDS011;4306;50.210;10.628;2022-12-07T01:44:14;9.73;;;5.80;;
8536;SDS011;4306;50.210;10.628;2022-12-07T01:46:47;11.87;;;6.97;;
8536;SDS011;4306;50.210;10.628;2022-12-07T01:49:17;12.23;;;7.10;;
8536;SDS011;4306;50.210;10.628;2022-12-07T01:51:49;13.03;;;7.77;;
8536;SDS011;4306;50.210;10.628;2022-12-07T01:54:18;11.23;;;7.70;;
8536;SDS011;4306;50.210;10.628;2022-12-07T01:56:49;12.13;;;7.40;;
8536;SDS011;4306;50.210;10.628;2022-12-07T01:59:18;13.70;;;7.10;;
8536;SDS011;4306;50.210;10.628;2022-12-07T02:01:50;12.37;;;7.57;;
8536;SDS011;4306;50.210;10.628;2022-12-07T02:04:19;12.17;;;7.53;;
8536;SDS011;4306;50.210;10.628;2022-12-07T02:06:47;12.27;;;7.23;;
8536;SDS011;4306;50.210;10.628;2022-12-07T02:09:14;12.13;;;7.47;;
8536;SDS011;4306;50.210;10.628;2022-12-07T02:11:41;11.63;;;7.63;;
8536;SDS011;4306;50.210;10.628;2022-12-07T02:14:08;12.93;;;7.77;;
8536;SDS011;4306;50.210;10.628;2022-12-07T02:16:37;11.63;;;7.60;;
8536;SDS011;4306;50.210;10.628;2022-12-07T02:19:21;12.33;;;7.27;;
8536;SDS011;4306;50.210;10.628;2022-12-07T02:22:14;11.83;;;7.30;;
8536;SDS011;4306;50.210;10.628;2022-12-07T02:24:56;12.13;;;8.00;;
8536;SDS011;4306;50.210;10.628;2022-12-07T02:27:38;14.83;;;7.30;;
8536;SDS011;4306;50.210;10.628;2022-12-07T02:30:13;12.27;;;6.90;;
8536;SDS011;4306;50.210;10.628;2022-12-07T02:32:43;12.57;;;7.30;;
8536;SDS011;4306;50.210;10.628;2022-12-07T02:35:17;11.40;;;7.00;;
8536;SDS011;4306;50.210;10.628;2022-12-07T02:37:49;12.53;;;7.83;;
8536;SDS011;4306;50.210;10.628;2022-12-07T02:40:25;15.70;;;8.60;;
8536;SDS011;4306;50.210;10.628;2022-12-07T02:42:56;13.50;;;8.33;;
8536;SDS011;4306;50.210;10.628;2022-12-07T02:45:29;15.03;;;9.10;;
8536;SDS011;4306;50.210;10.628;2022-12-07T02:47:58;16.13;;;8.70;;
8536;SDS011;4306;50.210;10.628;2022-12-07T02:50:27;15.60;;;8.60;;
8536;SDS011;4306;50.210;10.628;2022-12-07T02:52:54;14.63;;;8.13;;
8536;SDS011;4306;50.210;10.628;2022-12-07T02:55:22;12.73;;;8.10;;
8536;SDS011;4306;50.210;10.628;2022-12-07T03:00:58;15.60;;;8.83;;
8536;SDS011;4306;50.210;10.628;2022-12-07T03:03:30;14.60;;;8.77;;
8536;SDS011;4306;50.210;10.628;2022-12-07T03:05:59;12.10;;;7.83;;
8536;SDS011;4306;50.210;10.628;2022-12-07T03:08:38;12.63;;;8.40;;
8536;SDS011;4306;50.210;10.628;2022-12-07T03:11:14;14.13;;;8.20;;
8536;SDS011;4306;50.210;10.628;2022-12-07T03:13:48;13.20;;;7.43;;
8536;SDS011;4306;50.210;10.628;2022-12-07T03:16:21;14.77;;;7.70;;
8536;SDS011;4306;50.210;10.628;2022-12-07T03:18:53;13.70;;;7.90;;
8536;SDS011;4306;50.210;10.628;2022-12-07T03:21:23;13.40;;;7.97;;
8536;SDS011;4306;50.210;10.628;2022-12-07T03:23:54;15.87;;;8.27;;
8536;SDS011;4306;50.210;10.628;2022-12-07T03:26:23;15.13;;;8.20;;
8536;SDS011;4306;50.210;10.628;2022-12-07T03:28:57;14.10;;;8.30;;
8536;SDS011;4306;50.210;10.628;2022-12-07T03:31:30;13.27;;;8.30;;
8536;SDS011;4306;50.210;10.628;2022-12-07T03:34:01;22.13;;;12.40;;
8536;SDS011;4306;50.210;10.628;2022-12-07T03:36:34;16.60;;;9.63;;
8536;SDS011;4306;50.210;10.628;2022-12-07T03:39:09;15.13;;;9.37;;
8536;SDS011;4306;50.210;10.628;2022-12-07T03:41:43;15.70;;;9.07;;
8536;SDS011;4306;50.210;10.628;2022-12-07T03:44:10;17.43;;;10.00;;
8536;SDS011;4306;50.210;10.628;2022-12-07T03:46:41;16.13;;;8.57;;
8536;SDS011;4306;50.210;10.628;2022-12-07T03:49:11;15.50;;;9.17;;
8536;SDS011;4306;50.210;10.628;2022-12-07T03:51:45;16.93;;;9.73;;
8536;SDS011;4306;50.210;10.628;2022-12-07T03:54:18;18.53;;;11.10;;
8536;SDS011;4306;50.210;10.628;2022-12-07T03:56:49;16.53;;;10.23;;
8536;SDS011;4306;50.210;10.628;2022-12-07T03:59:17;15.70;;;9.50;;
8536;SDS011;4306;50.210;10.628;2022-12-07T04:01:51;19.40;;;10.30;;
8536;SDS011;4306;50.210;10.628;2022-12-07T04:04:19;17.20;;;9.87;;
8536;SDS011;4306;50.210;10.628;2022-12-07T04:06:46;16.20;;;9.23;;
8536;SDS011;4306;50.210;10.628;2022-12-07T04:09:13;15.03;;;9.23;;
8536;SDS011;4306;50.210;10.628;2022-12-07T04:11:40;20.07;;;10.30;;
8536;SDS011;4306;50.210;10.628;2022-12-07T04:14:07;16.90;;;9.13;;
8536;SDS011;4306;50.210;10.628;2022-12-07T04:16:47;15.07;;;8.93;;
8536;SDS011;4306;50.210;10.628;2022-12-07T04:19:15;17.47;;;9.30;;
8536;SDS011;4306;50.210;10.628;2022-12-07T04:21:43;14.80;;;8.90;;
8536;SDS011;4306;50.210;10.628;2022-12-07T04:24:11;15.90;;;9.43;;
8536;SDS011;4306;50.210;10.628;2022-12-07T04:26:38;17.67;;;9.47;;
8536;SDS011;4306;50.210;10.628;2022-12-07T04:29:05;15.17;;;8.43;;
8536;SDS011;4306;50.210;10.628;2022-12-07T04:31:32;17.07;;;8.93;;
8536;SDS011;4306;50.210;10.628;2022-12-07T04:34:00;16.40;;;9.53;;
8536;SDS011;4306;50.210;10.628;2022-12-07T04:36:28;17.90;;;9.70;;
8536;SDS011;4306;50.210;10.628;2022-12-07T04:38:55;16.00;;;9.37;;
8536;SDS011;4306;50.210;10.628;2022-12-07T04:41:22;17.60;;;9.40;;
8536;SDS011;4306;50.210;10.628;2022-12-07T04:43:53;14.43;;;8.33;;
8536;SDS011;4306;50.210;10.628;2022-12-07T04:46:21;15.73;;;9.20;;
8536;SDS011;4306;50.210;10.628;2022-12-07T04:48:48;15.50;;;8.87;;
8536;SDS011;4306;50.210;10.628;2022-12-07T04:51:18;15.77;;;9.30;;
8536;SDS011;4306;50.210;10.628;2022-12-07T04:53:48;14.73;;;8.30;;
8536;SDS011;4306;50.210;10.628;2022-12-07T04:56:15;13.00;;;8.07;;
8536;SDS011;4306;50.210;10.628;2022-12-07T04:58:43;14.50;;;8.47;;
8536;SDS011;4306;50.210;10.628;2022-12-07T05:01:10;14.07;;;8.47;;
8536;SDS011;4306;50.210;10.628;2022-12-07T05:03:38;17.10;;;8.80;;
8536;SDS011;4306;50.210;10.628;2022-12-07T05:06:05;16.67;;;8.53;;
8536;SDS011;4306;50.210;10.628;2022-12-07T05:08:34;15.37;;;8.60;;
8536;SDS011;4306;50.210;10.628;2022-12-07T05:11:01;18.50;;;9.10;;
8536;SDS011;4306;50.210;10.628;2022-12-07T05:13:28;14.80;;;8.77;;
8536;SDS011;4306;50.210;10.628;2022-12-07T05:15:55;15.23;;;8.53;;
8536;SDS011;4306;50.210;10.628;2022-12-07T05:18:22;16.73;;;9.30;;
8536;SDS011;4306;50.210;10.628;2022-12-07T05:20:49;15.60;;;9.07;;
8536;SDS011;4306;50.210;10.628;2022-12-07T05:23:17;15.87;;;10.10;;
8536;SDS011;4306;50.210;10.628;2022-12-07T05:25:46;15.47;;;9.40;;
8536;SDS011;4306;50.210;10.628;2022-12-07T05:28:13;16.20;;;9.17;;
8536;SDS011;4306;50.210;10.628;2022-12-07T05:30:40;18.80;;;10.57;;
8536;SDS011;4306;50.210;10.628;2022-12-07T05:33:06;18.07;;;9.63;;
8536;SDS011;4306;50.210;10.628;2022-12-07T05:35:33;16.53;;;9.70;;
8536;SDS011;4306;50.210;10.628;2022-12-07T05:38:00;16.10;;;9.00;;
8536;SDS011;4306;50.210;10.628;2022-12-07T05:40:27;19.27;;;9.67;;
8536;SDS011;4306;50.210;10.628;2022-12-07T05:42:55;16.57;;;9.70;;
8536;SDS011;4306;50.210;10.628;2022-12-07T05:45:22;16.53;;;9.73;;
8536;SDS011;4306;50.210;10.628;2022-12-07T05:47:49;16.50;;;9.97;;
8536;SDS011;4306;50.210;10.628;2022-12-07T05:50:16;16.47;;;9.60;;
8536;SDS011;4306;50.210;10.628;2022-12-07T05:52:43;13.47;;;8.43;;
8536;SDS011;4306;50.210;10.628;2022-12-07T05:55:09;14.03;;;8.90;;
8536;SDS011;4306;50.210;10.628;2022-12-07T05:57:36;21.63;;;11.07;;
8536;SDS011;4306;50.210;10.628;2022-12-07T06:00:05;38.43;;;20.17;;
8536;SDS011;4306;50.210;10.628;2022-12-07T06:02:32;28.70;;;15.33;;
8536;SDS011;4306;50.210;10.628;2022-12-07T06:04:58;16.93;;;10.07;;
8536;SDS011;4306;50.210;10.628;2022-12-07T06:07:25;18.40;;;9.70;;
8536;SDS011;4306;50.210;10.628;2022-12-07T06:09:52;24.23;;;14.83;;
8536;SDS011;4306;50.210;10.628;2022-12-07T06:12:19;22.67;;;13.87;;
8536;SDS011;4306;50.210;10.628;2022-12-07T06:15:00;23.50;;;13.10;;
8536;SDS011;4306;50.210;10.628;2022-12-07T06:17:28;16.87;;;10.40;;
8536;SDS011;4306;50.210;10.628;2022-12-07T06:19:56;21.40;;;10.40;;
8536;SDS011;4306;50.210;10.628;2022-12-07T06:22:23;16.13;;;10.03;;
8536;SDS011;4306;50.210;10.628;2022-12-07T06:24:50;18.80;;;10.50;;
8536;SDS011;4306;50.210;10.628;2022-12-07T06:27:17;22.00;;;13.17;;
8536;SDS011;4306;50.210;10.628;2022-12-07T06:29:44;70.47;;;33.37;;
8536;SDS011;4306;50.210;10.628;2022-12-07T06:32:11;21.83;;;12.67;;
8536;SDS011;4306;50.210;10.628;2022-12-07T06:34:39;21.67;;;12.00;;
8536;SDS011;4306;50.210;10.628;2022-12-07T06:37:06;16.80;;;9.40;;
8536;SDS011;4306;50.210;10.628;2022-12-07T06:39:33;16.73;;;9.10;;
8536;SDS011;4306;50.210;10.628;2022-12-07T06:42:00;16.17;;;9.97;;
8536;SDS011;4306;50.210;10.628;2022-12-07T06:44:27;14.95;;;9.25;;
8536;SDS011;4306;50.210;10.628;2022-12-07T06:46:53;14.37;;;9.03;;
8536;SDS011;4306;50.210;10.628;2022-12-07T06:49:21;16.13;;;9.10;;
8536;SDS011;4306;50.210;10.628;2022-12-07T06:51:49;16.90;;;9.23;;
8536;SDS011;4306;50.210;10.628;2022-12-07T06:54:17;14.37;;;8.80;;
8536;SDS011;4306;50.210;10.628;2022-12-07T06:56:44;16.30;;;9.17;;
8536;SDS011;4306;50.210;10.628;2022-12-07T06:59:11;17.80;;;9.23;;
8536;SDS011;4306;50.210;10.628;2022-12-07T07:01:37;19.13;;;11.17;;
8536;SDS011;4306;50.210;10.628;2022-12-07T07:04:04;14.50;;;8.90;;
8536;SDS011;4306;50.210;10.628;2022-12-07T07:06:31;18.57;;;9.97;;
8536;SDS011;4306;50.210;10.628;2022-12-07T07:09:00;16.17;;;9.17;;
8536;SDS011;4306;50.210;10.628;2022-12-07T07:11:26;15.27;;;9.33;;
8536;SDS011;4306;50.210;10.628;2022-12-07T07:13:53;15.40;;;8.97;;
8536;SDS011;4306;50.210;10.628;2022-12-07T07:16:22;15.03;;;8.87;;
8536;SDS011;4306;50.210;10.628;2022-12-07T07:18:50;15.70;;;8.57;;
8536;SDS011;4306;50.210;10.628;2022-12-07T07:21:16;15.33;;;8.57;;
8536;SDS011;4306;50.210;10.628;2022-12-07T07:23:43;15.23;;;9.00;;
8536;SDS011;4306;50.210;10.628;2022-12-07T07:26:11;15.73;;;9.50;;
8536;SDS011;4306;50.210;10.628;2022-12-07T07:28:38;14.53;;;9.27;;
8536;SDS011;4306;50.210;10.628;2022-12-07T07:31:05;14.20;;;8.97;;
8536;SDS011;4306;50.210;10.628;2022-12-07T07:33:32;14.37;;;9.10;;
8536;SDS011;4306;50.210;10.628;2022-12-07T07:35:59;15.03;;;9.03;;
8536;SDS011;4306;50.210;10.628;2022-12-07T07:38:26;15.60;;;9.47;;
8536;SDS011;4306;50.210;10.628;2022-12-07T07:40:53;16.20;;;9.40;;
8536;SDS011;4306;50.210;10.628;2022-12-07T07:43:21;16.73;;;10.13;;
8536;SDS011;4306;50.210;10.628;2022-12-07T07:45:48;16.90;;;10.20;;
8536;SDS011;4306;50.210;10.628;2022-12-07T07:48:14;20.97;;;9.37;;
8536;SDS011;4306;50.210;10.628;2022-12-07T07:50:44;16.87;;;9.00;;
8536;SDS011;4306;50.210;10.628;2022-12-07T07:53:11;15.10;;;9.57;;
8536;SDS011;4306;50.210;10.628;2022-12-07T07:55:38;15.70;;;9.83;;
8536;SDS011;4306;50.210;10.628;2022-12-07T07:58:05;15.83;;;9.87;;
8536;SDS011;4306;50.210;10.628;2022-12-07T08:00:33;18.20;;;10.00;;
8536;SDS011;4306;50.210;10.628;2022-12-07T08:03:00;20.23;;;11.57;;
8536;SDS011;4306;50.210;10.628;2022-12-07T08:05:27;20.57;;;11.17;;
8536;SDS011;4306;50.210;10.628;2022-12-07T08:07:53;21.13;;;10.63;;
8536;SDS011;4306;50.210;10.628;2022-12-07T08:10:20;17.10;;;10.27;;
8536;SDS011;4306;50.210;10.628;2022-12-07T08:12:47;16.93;;;10.20;;
8536;SDS011;4306;50.210;10.628;2022-12-07T08:15:33;17.37;;;10.73;;
8536;SDS011;4306;50.210;10.628;2022-12-07T08:18:02;14.53;;;9.13;;
8536;SDS011;4306;50.210;10.628;2022-12-07T08:20:29;15.80;;;10.23;;
8536;SDS011;4306;50.210;10.628;2022-12-07T08:22:57;15.63;;;9.17;;
8536;SDS011;4306;50.210;10.628;2022-12-07T08:25:24;15.82;;;8.82;;
8536;SDS011;4306;50.210;10.628;2022-12-07T08:27:51;14.57;;;9.52;;
8536;SDS011;4306;50.210;10.628;2022-12-07T08:30:18;18.80;;;9.43;;
8536;SDS011;4306;50.210;10.628;2022-12-07T08:32:48;13.07;;;8.50;;
8536;SDS011;4306;50.210;10.628;2022-12-07T08:35:15;17.37;;;10.07;;
8536;SDS011;4306;50.210;10.628;2022-12-07T08:37:42;14.17;;;9.03;;
8536;SDS011;4306;50.210;10.628;2022-12-07T08:40:10;14.77;;;9.00;;
8536;SDS011;4306;50.210;10.628;2022-12-07T08:42:40;14.40;;;9.03;;
8536;SDS011;4306;50.210;10.628;2022-12-07T08:45:08;15.83;;;9.83;;
8536;SDS011;4306;50.210;10.628;2022-12-07T08:47:37;15.13;;;8.90;;
8536;SDS011;4306;50.210;10.628;2022-12-07T08:50:09;13.40;;;9.17;;
8536;SDS011;4306;50.210;10.628;2022-12-07T08:52:37;14.17;;;8.97;;
8536;SDS011;4306;50.210;10.628;2022-12-07T08:55:05;14.67;;;9.60;;
8536;SDS011;4306;50.210;10.628;2022-12-07T08:57:35;14.93;;;9.27;;
8536;SDS011;4306;50.210;10.628;2022-12-07T09:00:02;16.63;;;10.53;;
8536;SDS011;4306;50.210;10.628;2022-12-07T09:02:30;17.40;;;9.57;;
8536;SDS011;4306;50.210;10.628;2022-12-07T09:04:57;16.50;;;9.50;;
8536;SDS011;4306;50.210;10.628;2022-12-07T09:07:25;14.17;;;9.10;;
8536;SDS011;4306;50.210;10.628;2022-12-07T09:09:53;14.93;;;9.23;;
8536;SDS011;4306;50.210;10.628;2022-12-07T09:12:20;14.40;;;9.37;;
8536;SDS011;4306;50.210;10.628;2022-12-07T09:14:46;14.67;;;8.87;;
8536;SDS011;4306;50.210;10.628;2022-12-07T09:17:13;13.53;;;8.40;;
8536;SDS011;4306;50.210;10.628;2022-12-07T09:19:40;14.63;;;9.33;;
8536;SDS011;4306;50.210;10.628;2022-12-07T09:22:07;13.00;;;8.70;;
8536;SDS011;4306;50.210;10.628;2022-12-07T09:24:36;12.87;;;8.80;;
8536;SDS011;4306;50.210;10.628;2022-12-07T09:27:03;14.90;;;8.70;;
8536;SDS011;4306;50.210;10.628;2022-12-07T09:29:30;12.67;;;8.10;;
8536;SDS011;4306;50.210;10.628;2022-12-07T09:31:56;12.73;;;8.17;;
8536;SDS011;4306;50.210;10.628;2022-12-07T09:34:23;13.20;;;9.07;;
8536;SDS011;4306;50.210;10.628;2022-12-07T09:36:51;14.00;;;8.43;;
8536;SDS011;4306;50.210;10.628;2022-12-07T09:39:18;12.77;;;7.53;;
8536;SDS011;4306;50.210;10.628;2022-12-07T09:41:46;12.17;;;7.87;;
8536;SDS011;4306;50.210;10.628;2022-12-07T09:44:16;13.30;;;7.87;;
8536;SDS011;4306;50.210;10.628;2022-12-07T09:46:49;13.77;;;7.70;;
8536;SDS011;4306;50.210;10.628;2022-12-07T09:49:18;11.37;;;7.33;;
8536;SDS011;4306;50.210;10.628;2022-12-07T09:51:46;11.57;;;7.63;;
8536;SDS011;4306;50.210;10.628;2022-12-07T09:54:15;12.00;;;7.83;;
8536;SDS011;4306;50.210;10.628;2022-12-07T09:56:43;13.27;;;7.47;;
8536;SDS011;4306;50.210;10.628;2022-12-07T09:59:13;10.00;;;6.80;;
8536;SDS011;4306;50.210;10.628;2022-12-07T10:01:45;10.60;;;7.17;;
8536;SDS011;4306;50.210;10.628;2022-12-07T10:04:15;9.60;;;6.57;;
8536;SDS011;4306;50.210;10.628;2022-12-07T10:06:44;11.20;;;6.90;;
8536;SDS011;4306;50.210;10.628;2022-12-07T10:09:14;8.88;;;5.80;;
8536;SDS011;4306;50.210;10.628;2022-12-07T10:12:02;9.48;;;6.13;;
8536;SDS011;4306;50.210;10.628;2022-12-07T10:14:33;11.32;;;6.55;;
8536;SDS011;4306;50.210;10.628;2022-12-07T10:17:02;9.97;;;5.80;;
8536;SDS011;4306;50.210;10.628;2022-12-07T10:19:49;11.48;;;6.03;;
8536;SDS011;4306;50.210;10.628;2022-12-07T10:22:16;10.68;;;6.90;;
8536;SDS011;4306;50.210;10.628;2022-12-07T10:24:43;11.57;;;7.43;;
8536;SDS011;4306;50.210;10.628;2022-12-07T10:27:19;11.60;;;5.90;;
8536;SDS011;4306;50.210;10.628;2022-12-07T10:29:50;9.38;;;5.80;;
8536;SDS011;4306;50.210;10.628;2022-12-07T10:32:27;8.48;;;5.93;;
8536;SDS011;4306;50.210;10.628;2022-12-07T10:35:21;9.82;;;6.22;;
8536;SDS011;4306;50.210;10.628;2022-12-07T10:37:51;9.57;;;6.30;;
8536;SDS011;4306;50.210;10.628;2022-12-07T10:40:27;9.05;;;6.20;;
8536;SDS011;4306;50.210;10.628;2022-12-07T10:43:02;10.07;;;6.15;;
8536;SDS011;4306;50.210;10.628;2022-12-07T10:45:34;8.77;;;5.95;;
8536;SDS011;4306;50.210;10.628;2022-12-07T10:48:10;11.37;;;5.33;;
8536;SDS011;4306;50.210;10.628;2022-12-07T10:50:55;7.30;;;4.70;;
8536;SDS011;4306;50.210;10.628;2022-12-07T10:53:37;10.20;;;6.30;;
8536;SDS011;4306;50.210;10.628;2022-12-07T10:56:35;7.88;;;5.07;;
8536;SDS011;4306;50.210;10.628;2022-12-07T10:59:50;11.03;;;6.50;;
8536;SDS011;4306;50.210;10.628;2022-12-07T11:02:35;10.45;;;6.68;;
8536;SDS011;4306;50.210;10.628;2022-12-07T11:05:17;10.98;;;7.30;;
8536;SDS011;4306;50.210;10.628;2022-12-07T11:07:56;9.25;;;5.97;;
8536;SDS011;4306;50.210;10.628;2022-12-07T11:10:30;9.47;;;6.27;;
8536;SDS011;4306;50.210;10.628;2022-12-07T11:13:12;9.07;;;5.67;;
8536;SDS011;4306;50.210;10.628;2022-12-07T11:15:53;13.75;;;8.35;;
8536;SDS011;4306;50.210;10.628;2022-12-07T11:18:29;19.17;;;10.32;;
8536;SDS011;4306;50.210;10.628;2022-12-07T11:21:06;10.13;;;5.50;;
8536;SDS011;4306;50.210;10.628;2022-12-07T11:23:44;10.40;;;6.10;;
8536;SDS011;4306;50.210;10.628;2022-12-07T11:26:18;19.77;;;10.32;;
8536;SDS011;4306;50.210;10.628;2022-12-07T11:29:02;15.90;;;7.63;;
8536;SDS011;4306;50.210;10.628;2022-12-07T11:31:48;7.13;;;4.72;;
8536;SDS011;4306;50.210;10.628;2022-12-07T11:34:24;5.72;;;4.30;;
8536;SDS011;4306;50.210;10.628;2022-12-07T11:37:01;10.27;;;4.45;;
8536;SDS011;4306;50.210;10.628;2022-12-07T11:39:32;8.07;;;4.20;;
8536;SDS011;4306;50.210;10.628;2022-12-07T11:42:04;9.27;;;4.83;;
8536;SDS011;4306;50.210;10.628;2022-12-07T11:44:36;6.30;;;4.07;;
8536;SDS011;4306;50.210;10.628;2022-12-07T11:47:20;6.68;;;4.40;;
8536;SDS011;4306;50.210;10.628;2022-12-07T11:49:56;7.63;;;4.18;;
8536;SDS011;4306;50.210;10.628;2022-12-07T11:52:30;9.15;;;4.45;;
8536;SDS011;4306;50.210;10.628;2022-12-07T11:55:07;5.82;;;3.75;;
8536;SDS011;4306;50.210;10.628;2022-12-07T11:57:45;8.85;;;4.65;;
8536;SDS011;4306;50.210;10.628;2022-12-07T12:00:18;8.48;;;3.88;;
8536;SDS011;4306;50.210;10.628;2022-12-07T12:02:47;7.85;;;3.58;;
8536;SDS011;4306;50.210;10.628;2022-12-07T12:05:21;6.97;;;4.22;;
8536;SDS011;4306;50.210;10.628;2022-12-07T12:07:49;7.32;;;3.65;;
8536;SDS011;4306;50.210;10.628;2022-12-07T12:10:21;7.00;;;4.10;;
8536;SDS011;4306;50.210;10.628;2022-12-07T12:13:10;7.37;;;4.63;;
8536;SDS011;4306;50.210;10.628;2022-12-07T12:15:53;6.18;;;3.45;;
8536;SDS011;4306;50.210;10.628;2022-12-07T12:18:36;6.53;;;4.38;;
8536;SDS011;4306;50.210;10.628;2022-12-07T12:21:15;12.00;;;5.70;;
8536;SDS011;4306;50.210;10.628;2022-12-07T12:23:47;10.88;;;5.45;;
8536;SDS011;4306;50.210;10.628;2022-12-07T12:26:17;7.82;;;3.83;;
8536;SDS011;4306;50.210;10.628;2022-12-07T12:28:50;7.00;;;4.05;;
8536;SDS011;4306;50.210;10.628;2022-12-07T12:36:57;8.68;;;4.18;;
8536;SDS011;4306;50.210;10.628;2022-12-07T12:39:25;8.93;;;4.07;;
8536;SDS011;4306;50.210;10.628;2022-12-07T12:42:01;7.30;;;4.68;;
8536;SDS011;4306;50.210;10.628;2022-12-07T12:44:40;11.88;;;4.47;;
8536;SDS011;4306;50.210;10.628;2022-12-07T12:50:18;6.65;;;3.88;;
8536;SDS011;4306;50.210;10.628;2022-12-07T12:52:56;6.13;;;3.55;;
8536;SDS011;4306;50.210;10.628;2022-12-07T12:55:44;5.88;;;3.65;;
8536;SDS011;4306;50.210;10.628;2022-12-07T12:58:32;5.57;;;3.70;;
8536;SDS011;4306;50.210;10.628;2022-12-07T13:04:18;7.97;;;4.43;;
8536;SDS011;4306;50.210;10.628;2022-12-07T13:06:50;6.45;;;3.67;;
8536;SDS011;4306;50.210;10.628;2022-12-07T13:09:20;5.82;;;3.50;;
8536;SDS011;4306;50.210;10.628;2022-12-07T13:11:50;6.43;;;3.90;;
8536;SDS011;4306;50.210;10.628;2022-12-07T13:14:43;6.30;;;3.50;;
8536;SDS011;4306;50.210;10.628;2022-12-07T13:23:23;7.95;;;4.53;;
8536;SDS011;4306;50.210;10.628;2022-12-07T13:25:56;7.90;;;3.67;;
8536;SDS011;4306;50.210;10.628;2022-12-07T13:28:45;8.90;;;3.60;;
8536;SDS011;4306;50.210;10.628;2022-12-07T13:31:19;7.32;;;3.40;;
8536;SDS011;4306;50.210;10.628;2022-12-07T13:33:55;6.00;;;3.30;;
8536;SDS011;4306;50.210;10.628;2022-12-07T13:36:22;6.97;;;3.58;;
8536;SDS011;4306;50.210;10.628;2022-12-07T13:38:52;7.33;;;3.30;;
8536;SDS011;4306;50.210;10.628;2022-12-07T13:41:23;6.90;;;3.40;;
8536;SDS011;4306;50.210;10.628;2022-12-07T13:43:52;5.07;;;3.17;;
8536;SDS011;4306;50.210;10.628;2022-12-07T13:46:27;5.20;;;2.78;;
8536;SDS011;4306;50.210;10.628;2022-12-07T13:49:01;6.05;;;3.40;;
8536;SDS011;4306;50.210;10.628;2022-12-07T13:51:28;6.03;;;3.80;;
8536;SDS011;4306;50.210;10.628;2022-12-07T13:54:06;6.13;;;3.03;;
8536;SDS011;4306;50.210;10.628;2022-12-07T13:56:37;6.67;;;3.33;;
8536;SDS011;4306;50.210;10.628;2022-12-07T13:59:05;6.00;;;3.33;;
8536;SDS011;4306;50.210;10.628;2022-12-07T14:01:37;4.95;;;3.05;;
8536;SDS011;4306;50.210;10.628;2022-12-07T14:04:16;5.95;;;3.15;;
8536;SDS011;4306;50.210;10.628;2022-12-07T14:07:16;5.20;;;3.20;;
8536;SDS011;4306;50.210;10.628;2022-12-07T14:09:56;4.95;;;3.05;;
8536;SDS011;4306;50.210;10.628;2022-12-07T14:12:26;5.77;;;3.37;;
8536;SDS011;4306;50.210;10.628;2022-12-07T14:14:55;8.10;;;3.97;;
8536;SDS011;4306;50.210;10.628;2022-12-07T14:17:23;5.97;;;3.88;;
8536;SDS011;4306;50.210;10.628;2022-12-07T14:19:51;7.13;;;3.60;;
8536;SDS011;4306;50.210;10.628;2022-12-07T14:22:22;5.50;;;3.67;;
8536;SDS011;4306;50.210;10.628;2022-12-07T14:25:14;5.72;;;3.47;;
8536;SDS011;4306;50.210;10.628;2022-12-07T14:27:48;7.77;;;4.13;;
8536;SDS011;4306;50.210;10.628;2022-12-07T14:30:20;4.37;;;3.03;;
8536;SDS011;4306;50.210;10.628;2022-12-07T14:32:48;7.63;;;3.80;;
8536;SDS011;4306;50.210;10.628;2022-12-07T14:35:17;6.80;;;3.67;;
8536;SDS011;4306;50.210;10.628;2022-12-07T14:37:45;7.10;;;3.25;;
8536;SDS011;4306;50.210;10.628;2022-12-07T14:40:14;9.05;;;3.38;;
8536;SDS011;4306;50.210;10.628;2022-12-07T14:42:43;6.90;;;3.92;;
8536;SDS011;4306;50.210;10.628;2022-12-07T14:45:15;8.43;;;3.42;;
8536;SDS011;4306;50.210;10.628;2022-12-07T14:47:44;5.10;;;3.25;;
8536;SDS011;4306;50.210;10.628;2022-12-07T14:50:12;8.37;;;3.80;;
8536;SDS011;4306;50.210;10.628;2022-12-07T14:52:40;5.57;;;3.50;;
8536;SDS011;4306;50.210;10.628;2022-12-07T14:55:12;6.70;;;3.00;;
8536;SDS011;4306;50.210;10.628;2022-12-07T14:57:42;5.67;;;3.00;;
8536;SDS011;4306;50.210;10.628;2022-12-07T15:00:13;6.03;;;2.65;;
8536;SDS011;4306;50.210;10.628;2022-12-07T15:02:43;6.00;;;3.38;;
8536;SDS011;4306;50.210;10.628;2022-12-07T15:05:11;6.45;;;3.50;;
8536;SDS011;4306;50.210;10.628;2022-12-07T15:07:38;7.35;;;3.10;;
8536;SDS011;4306;50.210;10.628;2022-12-07T15:10:06;5.70;;;2.73;;
8536;SDS011;4306;50.210;10.628;2022-12-07T15:12:39;5.80;;;2.90;;
8536;SDS011;4306;50.210;10.628;2022-12-07T15:15:06;6.40;;;2.83;;
8536;SDS011;4306;50.210;10.628;2022-12-07T15:17:35;4.93;;;2.88;;
8536;SDS011;4306;50.210;10.628;2022-12-07T15:20:01;5.47;;;2.63;;
8536;SDS011;4306;50.210;10.628;2022-12-07T15:22:29;6.33;;;2.70;;
8536;SDS011;4306;50.210;10.628;2022-12-07T15:24:56;6.10;;;2.63;;
8536;SDS011;4306;50.210;10.628;2022-12-07T15:27:23;8.17;;;4.33;;
8536;SDS011;4306;50.210;10.628;2022-12-07T15:29:50;5.32;;;3.40;;
8536;SDS011;4306;50.210;10.628;2022-12-07T15:32:18;6.35;;;2.75;;